Time;durP1;ratioP1;P1;durP2;ratioP2;P2;SDS_P1;SDS_P2;PMS_P1;PMS_P2;Temp;Humidity;BMP_temperature;BMP_pressure;BME280_temperature;BME280_humidity;BME280_pressure;Samples;Min_cycle;Max_cycle;Signal;HPM_P1;HPM_P2
2022/01/03 00:02:23;;;;;;;1.92;1.50;;;;;;;7.99;100.00;99880.66;4933307;28;20120;-85
2022/01/03 00:04:53;;;;;;;2.70;1.65;;;;;;;7.88;100.00;99875.66;4941342;28;20054;-85
2022/01/03 00:07:21;;;;;;;2.35;1.60;;;;;;;7.82;100.00;99887.19;4971573;28;20054;-85
2022/01/03 00:09:48;;;;;;;3.65;1.60;;;;;;;7.76;100.00;99868.91;4961397;28;20633;-85
2022/01/03 00:12:19;;;;;;;4.40;1.92;;;;;;;7.73;100.00;99868.09;4961412;28;20055;-85
2022/01/03 00:14:47;;;;;;;2.37;1.70;;;;;;;7.70;100.00;99861.16;4974854;28;20050;-85
2022/01/03 00:17:14;;;;;;;2.40;2.03;;;;;;;7.65;100.00;99852.50;4957522;28;20053;-84
2022/01/03 00:19:41;;;;;;;2.63;2.03;;;;;;;7.61;100.00;99858.72;4944268;28;20438;-85
2022/01/03 00:22:10;;;;;;;2.63;1.83;;;;;;;7.56;100.00;99850.91;4959283;28;20038;-85
2022/01/03 00:24:38;;;;;;;3.20;1.80;;;;;;;7.51;100.00;99867.69;4964549;28;20113;-86
2022/01/03 00:27:15;;;;;;;7.60;2.10;;;;;;;7.50;100.00;99856.31;4956791;28;20109;-85
2022/01/03 00:29:44;;;;;;;3.23;1.90;;;;;;;7.48;100.00;99854.59;4958601;28;20093;-85
2022/01/03 00:32:13;;;;;;;3.67;2.40;;;;;;;7.52;100.00;99848.41;4960750;28;20133;-85
2022/01/03 00:34:44;;;;;;;4.57;2.30;;;;;;;7.48;100.00;99852.88;4943892;28;20140;-85
2022/01/03 00:37:11;;;;;;;4.13;2.43;;;;;;;7.45;100.00;99847.66;4955898;28;20047;-85
2022/01/03 00:39:37;;;;;;;3.00;1.90;;;;;;;7.41;100.00;99845.16;4956824;28;20199;-85
2022/01/03 00:42:05;;;;;;;4.30;2.10;;;;;;;7.34;100.00;99832.13;4937555;28;20042;-85
2022/01/03 00:44:37;;;;;;;4.93;2.30;;;;;;;7.39;100.00;99832.00;4960435;28;20050;-84
2022/01/03 00:47:04;;;;;;;5.13;2.60;;;;;;;7.34;100.00;99831.25;4940183;28;20043;-85
2022/01/03 00:49:31;;;;;;;3.53;2.03;;;;;;;7.40;100.00;99838.13;4954663;28;20042;-84
2022/01/03 00:52:00;;;;;;;4.50;2.87;;;;;;;7.50;100.00;99829.19;4944255;28;20046;-85
2022/01/03 00:54:27;;;;;;;5.20;2.50;;;;;;;7.48;100.00;99821.34;4960785;28;20042;-84
2022/01/03 00:57:02;;;;;;;5.07;2.60;;;;;;;7.55;100.00;99822.03;4940100;28;20074;-85
2022/01/03 00:59:38;;;;;;;6.57;3.63;;;;;;;7.55;100.00;99825.53;4952951;28;20042;-85
2022/01/03 01:02:08;;;;;;;6.43;3.33;;;;;;;7.56;100.00;99818.50;4954020;28;20043;-85
2022/01/03 01:04:37;;;;;;;3.93;2.60;;;;;;;7.58;100.00;99816.75;4959609;28;20081;-85
2022/01/03 01:07:07;;;;;;;4.00;2.93;;;;;;;7.57;100.00;99807.13;4959839;28;20512;-84
2022/01/03 01:09:34;;;;;;;7.60;3.37;;;;;;;7.60;100.00;99807.06;4960578;28;20054;-85
2022/01/03 01:12:01;;;;;;;6.93;3.73;;;;;;;7.71;100.00;99807.66;4959109;28;20625;-86
2022/01/03 01:14:28;;;;;;;6.13;3.43;;;;;;;7.70;100.00;99808.56;4957517;28;20051;-85
2022/01/03 01:16:56;;;;;;;5.53;3.70;;;;;;;7.72;100.00;99801.50;4956350;28;20043;-86
2022/01/03 01:19:28;;;;;;;6.40;4.13;;;;;;;7.87;100.00;99793.28;4941447;28;20069;-85
2022/01/03 01:21:58;;;;;;;7.57;4.37;;;;;;;7.80;100.00;99799.56;4943604;28;20038;-85
2022/01/03 01:24:32;;;;;;;5.73;3.50;;;;;;;7.80;100.00;99799.56;4944994;28;20046;-86
2022/01/03 01:29:44;;;;;;;;;;;;;;;7.78;100.00;99796.13;4959084;28;19926;-85
2022/01/03 01:32:13;;;;;;;8.17;4.60;;;;;;;7.85;100.00;99795.06;4949167;28;20044;-86
2022/01/03 01:34:44;;;;;;;9.87;5.93;;;;;;;7.86;100.00;99785.44;4973466;28;20050;-86
2022/01/03 01:37:11;;;;;;;11.90;5.23;;;;;;;7.90;100.00;99785.34;4952917;28;20046;-85
2022/01/03 01:39:41;;;;;;;12.13;5.53;;;;;;;7.98;100.00;99781.63;4936696;28;20097;-86
2022/01/03 01:42:11;;;;;;;8.40;4.97;;;;;;;8.00;100.00;99785.09;4939089;28;20089;-85
2022/01/03 01:44:38;;;;;;;8.00;4.88;;;;;;;7.95;100.00;99785.19;4957007;28;20409;-85
2022/01/03 01:47:06;;;;;;;6.82;4.80;;;;;;;7.91;100.00;99778.31;4936810;28;20050;-85
2022/01/03 01:49:44;;;;;;;9.43;4.60;;;;;;;7.98;100.00;99764.06;4957469;28;20136;-86
2022/01/03 01:52:17;;;;;;;7.90;3.80;;;;;;;7.95;100.00;99769.41;4951258;28;20043;-85
2022/01/03 01:54:59;;;;;;;5.43;3.73;;;;;;;7.88;100.00;99750.28;4941019;28;20050;-84
2022/01/03 01:57:51;;;;;;;7.67;4.30;;;;;;;7.84;100.00;99748.66;4937047;28;20489;-85
2022/01/03 02:00:18;;;;;;;7.40;3.90;;;;;;;7.87;100.00;99755.59;4971566;28;20054;-85
2022/01/03 02:02:47;;;;;;;8.63;4.10;;;;;;;7.85;100.00;99746.88;4947003;28;20050;-85
2022/01/03 02:05:27;;;;;;;5.50;4.30;;;;;;;7.95;100.00;99740.50;4973472;28;20129;-85
2022/01/03 02:08:14;;;;;;;9.00;4.35;;;;;;;7.95;100.00;99731.75;4940050;28;20042;-85
2022/01/03 02:10:44;;;;;;;6.80;4.47;;;;;;;7.97;100.00;99730.78;4956933;28;20367;-84
2022/01/03 02:13:16;;;;;;;8.40;5.13;;;;;;;7.89;100.00;99728.34;4954708;28;20038;-85
2022/01/03 02:15:46;;;;;;;8.37;4.93;;;;;;;7.94;100.00;99725.63;4957734;28;20054;-84
2022/01/03 02:18:13;;;;;;;8.70;5.17;;;;;;;7.93;100.00;99717.78;4970708;28;20743;-85
2022/01/03 02:20:41;;;;;;;6.50;4.90;;;;;;;7.93;100.00;99716.00;4941122;28;20081;-85
2022/01/03 02:23:08;;;;;;;8.10;6.17;;;;;;;7.96;100.00;99709.78;4971240;28;20043;-84
2022/01/03 02:25:35;;;;;;;10.90;5.90;;;;;;;7.92;100.00;99710.78;4953813;28;20047;-85
2022/01/03 02:28:02;;;;;;;8.80;5.60;;;;;;;7.92;100.00;99706.38;4939711;28;20504;-85
2022/01/03 02:30:30;;;;;;;7.87;5.10;;;;;;;7.93;100.00;99707.25;4973358;28;20038;-85
2022/01/03 02:32:57;;;;;;;7.10;5.80;;;;;;;7.96;100.00;99704.53;4953305;28;20092;-84
2022/01/03 02:35:24;;;;;;;7.40;5.60;;;;;;;7.90;100.00;99695.91;4931453;28;20098;-84
2022/01/03 02:37:53;;;;;;;10.20;5.83;;;;;;;7.93;100.00;99694.09;4972849;28;20186;-83
2022/01/03 02:40:21;;;;;;;8.00;5.90;;;;;;;7.98;100.00;99693.06;4960453;28;20511;-84
2022/01/03 02:42:49;;;;;;;9.83;5.60;;;;;;;8.10;100.00;99689.28;4942811;28;20448;-85
2022/01/03 02:45:18;;;;;;;10.10;6.13;;;;;;;8.14;100.00;99691.75;4960158;28;20035;-84
2022/01/03 02:47:47;;;;;;;8.20;5.82;;;;;;;8.05;100.00;99694.63;4955476;28;20050;-83
2022/01/03 02:50:15;;;;;;;9.75;5.45;;;;;;;8.06;100.00;99683.22;4937692;28;20109;-85
2022/01/03 02:52:42;;;;;;;7.13;5.27;;;;;;;8.07;100.00;99684.06;4958552;28;20042;-85
2022/01/03 02:55:10;;;;;;;9.32;5.25;;;;;;;8.12;100.00;99666.41;4943950;28;20141;-84
2022/01/03 02:57:43;;;;;;;6.43;5.18;;;;;;;8.10;100.00;99676.13;4958888;28;20432;-84
2022/01/03 03:00:12;;;;;;;7.63;5.57;;;;;;;8.06;100.00;99677.09;4972348;28;20062;-85
2022/01/03 03:02:39;;;;;;;6.15;4.55;;;;;;;8.07;100.00;99663.91;4928485;28;20046;-84
2022/01/03 03:05:08;;;;;;;5.13;4.30;;;;;;;8.04;100.00;99668.38;4940333;28;20270;-84
2022/01/03 03:07:36;;;;;;;8.60;4.30;;;;;;;8.09;100.00;99672.63;4954567;28;20061;-85
2022/01/03 03:10:11;;;;;;;7.25;4.35;;;;;;;8.07;100.00;99658.66;4959988;28;20114;-85
2022/01/03 03:12:37;;;;;;;5.03;4.07;;;;;;;7.94;100.00;99665.13;4954591;28;20070;-84
2022/01/03 03:15:05;;;;;;;8.00;3.97;;;;;;;8.02;100.00;99655.28;4962031;28;20038;-84
2022/01/03 03:17:32;;;;;;;5.87;3.40;;;;;;;8.11;100.00;99659.44;4940756;28;20050;-84
2022/01/03 03:20:02;;;;;;;5.57;3.50;;;;;;;8.01;100.00;99648.28;4943153;28;20046;-85
2022/01/03 03:22:29;;;;;;;4.07;3.23;;;;;;;8.04;100.00;99649.97;4941920;28;20038;-84
2022/01/03 03:25:12;;;;;;;4.57;2.80;;;;;;;7.98;100.00;99644.84;4956779;28;20051;-84
2022/01/03 03:27:44;;;;;;;6.03;3.00;;;;;;;7.96;100.00;99647.53;4974001;28;20054;-83
2022/01/03 03:30:24;;;;;;;3.22;2.63;;;;;;;7.92;100.00;99635.38;4959519;28;20053;-84
2022/01/03 03:32:53;;;;;;;3.43;2.80;;;;;;;7.90;100.00;99622.28;4954853;28;20050;-84
2022/01/03 03:35:21;;;;;;;4.60;2.50;;;;;;;7.97;100.00;99627.34;4973577;28;20101;-84
2022/01/03 03:37:47;;;;;;;6.33;2.60;;;;;;;7.93;100.00;99621.31;4959127;28;20039;-85
2022/01/03 03:40:14;;;;;;;4.97;2.90;;;;;;;7.88;100.00;99608.28;4955416;28;20180;-84
2022/01/03 03:42:42;;;;;;;4.70;2.40;;;;;;;7.92;100.00;99616.09;4948015;28;20077;-85
2022/01/03 03:45:10;;;;;;;2.97;2.13;;;;;;;7.87;100.00;99603.94;4971301;28;20050;-84
2022/01/03 03:47:36;;;;;;;4.37;2.57;;;;;;;7.92;100.00;99601.19;4951744;28;20460;-83
2022/01/03 03:50:04;;;;;;;2.30;1.80;;;;;;;7.85;100.00;99592.59;4955757;28;20050;-83
2022/01/03 03:52:31;;;;;;;2.67;1.90;;;;;;;7.82;100.00;99591.81;4941335;28;20060;-84
2022/01/03 03:54:58;;;;;;;3.40;1.90;;;;;;;7.83;100.00;99583.91;4957764;28;20038;-84
2022/01/03 03:57:25;;;;;;;3.93;2.20;;;;;;;7.82;100.00;99582.16;4941216;28;20050;-84
2022/01/03 03:59:53;;;;;;;2.77;1.93;;;;;;;7.89;100.00;99582.84;4955614;28;20054;-84
2022/01/03 04:02:19;;;;;;;6.07;2.20;;;;;;;7.83;100.00;99591.78;4956962;28;20038;-84
2022/01/03 04:04:46;;;;;;;2.90;2.10;;;;;;;7.90;100.00;99576.69;4927651;28;20412;-82
2022/01/03 04:07:13;;;;;;;4.07;1.90;;;;;;;7.88;100.00;99587.25;4957412;28;20133;-83
2022/01/03 04:09:40;;;;;;;2.43;1.60;;;;;;;7.79;100.00;99584.88;4942175;28;20053;-83
2022/01/03 04:12:08;;;;;;;3.03;1.83;;;;;;;7.92;100.00;99581.91;4953076;28;20053;-83
2022/01/03 04:14:35;;;;;;;3.67;2.00;;;;;;;7.88;100.00;99583.75;4957206;28;20497;-83
2022/01/03 04:17:01;;;;;;;3.33;1.93;;;;;;;7.82;100.00;99574.28;4941240;28;20140;-84
2022/01/03 04:19:28;;;;;;;2.77;1.90;;;;;;;7.85;100.00;99578.59;4942779;28;20049;-83
2022/01/03 04:21:54;;;;;;;2.60;1.50;;;;;;;7.88;100.00;99571.47;4956179;28;20493;-83
2022/01/03 04:24:21;;;;;;;3.47;2.10;;;;;;;7.91;100.00;99575.81;4955480;28;20065;-83
2022/01/03 04:26:49;;;;;;;3.33;1.90;;;;;;;7.86;100.00;99575.91;4928566;28;20437;-83
2022/01/03 04:29:16;;;;;;;2.23;1.83;;;;;;;7.86;100.00;99570.66;4932882;28;20050;-83
2022/01/03 04:31:43;;;;;;;1.80;1.60;;;;;;;7.79;100.00;99578.75;4938540;28;20066;-83
2022/01/03 04:34:10;;;;;;;1.70;1.30;;;;;;;7.77;100.00;99575.28;4942349;28;20072;-83
2022/01/03 04:36:36;;;;;;;2.47;1.47;;;;;;;7.81;100.00;99584.81;4953537;28;20054;-83
2022/01/03 04:39:04;;;;;;;2.03;1.57;;;;;;;7.84;100.00;99584.75;4945312;28;20504;-83
2022/01/03 04:41:31;;;;;;;2.03;1.60;;;;;;;7.84;100.00;99583.00;4934718;28;20069;-84
2022/01/03 04:44:00;;;;;;;2.97;1.50;;;;;;;7.78;100.00;99577.03;4955349;28;20042;-83
2022/01/03 04:46:27;;;;;;;1.90;1.37;;;;;;;7.81;100.00;99585.69;4930300;28;20051;-84
2022/01/03 04:48:54;;;;;;;2.53;1.60;;;;;;;7.89;100.00;99588.97;4946344;28;20419;-83
2022/01/03 04:51:20;;;;;;;2.70;1.70;;;;;;;7.89;100.00;99586.34;4941504;28;20066;-84
2022/01/03 04:53:47;;;;;;;2.40;1.40;;;;;;;7.89;100.00;99591.59;4944013;28;20046;-85
2022/01/03 04:56:21;;;;;;;2.07;1.60;;;;;;;7.84;100.00;99593.50;4947695;28;20053;-86
2022/01/03 04:58:51;;;;;;;2.70;1.50;;;;;;;7.85;100.00;99594.38;4955942;28;20042;-83
2022/01/03 05:01:17;;;;;;;2.33;1.53;;;;;;;7.89;100.00;99585.47;4960170;28;20042;-83
2022/01/03 05:03:44;;;;;;;1.70;1.40;;;;;;;7.86;100.00;99591.69;4940655;28;20129;-84
2022/01/03 05:06:11;;;;;;;1.57;1.30;;;;;;;7.90;100.00;99597.72;4951713;28;20054;-85
2022/01/03 05:08:38;;;;;;;2.17;1.17;;;;;;;7.84;100.00;99598.75;4944620;23;20499;-84
2022/01/03 05:11:04;;;;;;;1.33;1.10;;;;;;;7.86;100.00;99606.59;4974526;28;20043;-84
2022/01/03 05:13:31;;;;;;;1.57;1.20;;;;;;;7.83;100.00;99618.06;4946526;28;20047;-84
2022/01/03 05:15:59;;;;;;;1.07;0.87;;;;;;;7.82;100.00;99618.97;4929500;28;20408;-85
2022/01/03 05:18:27;;;;;;;1.30;1.13;;;;;;;7.82;100.00;99623.38;4934133;28;20053;-84
2022/01/03 05:20:53;;;;;;;1.23;0.90;;;;;;;7.80;100.00;99628.66;4946447;28;20048;-84
2022/01/03 05:23:20;;;;;;;1.53;0.93;;;;;;;7.82;100.00;99637.38;4950809;28;20046;-83
2022/01/03 05:25:47;;;;;;;0.87;0.80;;;;;;;7.75;100.00;99642.84;4946674;28;20093;-84
2022/01/03 05:28:14;;;;;;;1.57;0.90;;;;;;;7.77;100.00;99649.78;4951685;28;20058;-83
2022/01/03 05:30:41;;;;;;;5.50;1.20;;;;;;;7.71;100.00;99662.22;4906070;28;20046;-81
2022/01/03 05:33:08;;;;;;;1.07;0.90;;;;;;;7.69;100.00;99664.00;4933384;28;20046;-84
2022/01/03 05:35:35;;;;;;;1.00;0.80;;;;;;;7.72;100.00;99677.06;4932905;28;20042;-81
2022/01/03 05:38:02;;;;;;;1.50;0.70;;;;;;;7.61;100.00;99690.50;4927749;28;20135;-85
2022/01/03 05:40:29;;;;;;;1.07;0.80;;;;;;;7.59;100.00;99708.06;4939555;28;20537;-81
2022/01/03 05:42:55;;;;;;;1.60;0.80;;;;;;;7.62;100.00;99708.84;4951995;23;20070;-81
2022/01/03 05:45:25;;;;;;;0.63;0.63;;;;;;;7.59;100.00;99718.59;4989259;23;20029;-81
2022/01/03 05:47:52;;;;;;;1.00;0.70;;;;;;;7.55;100.00;99732.69;4941345;28;20046;-82
2022/01/03 05:50:19;;;;;;;0.70;0.70;;;;;;;7.57;100.00;99742.28;4957791;28;20038;-82
2022/01/03 05:52:46;;;;;;;0.63;0.63;;;;;;;7.57;100.00;99744.03;4937332;28;20047;-82
2022/01/03 05:55:14;;;;;;;0.90;0.73;;;;;;;7.57;100.00;99758.06;4922821;28;20507;-81
2022/01/03 05:57:41;;;;;;;1.77;0.80;;;;;;;7.55;100.00;99769.47;4964418;28;20053;-82
2022/01/03 06:00:11;;;;;;;0.87;0.70;;;;;;;7.51;100.00;99767.84;4956346;28;20047;-82
2022/01/03 06:02:41;;;;;;;1.07;0.70;;;;;;;7.47;100.00;99771.41;4942268;28;20401;-83
2022/01/03 06:05:20;;;;;;;1.47;0.90;;;;;;;7.46;100.00;99777.56;4955309;28;20045;-83
2022/01/03 06:07:47;;;;;;;2.63;1.40;;;;;;;7.44;100.00;99795.13;4956855;28;20047;-84
2022/01/03 06:10:16;;;;;;;0.70;0.70;;;;;;;7.44;100.00;99784.63;4947576;28;20092;-84
2022/01/03 06:12:45;;;;;;;2.33;1.30;;;;;;;7.45;100.00;99797.72;4958919;28;20066;-83
2022/01/03 06:15:14;;;;;;;1.30;0.70;;;;;;;7.41;100.00;99800.47;4963627;28;20034;-83
2022/01/03 06:17:42;;;;;;;1.03;0.70;;;;;;;7.40;100.00;99790.81;4961057;28;20042;-82
2022/01/03 06:20:09;;;;;;;1.13;0.70;;;;;;;7.39;100.00;99802.25;4945691;28;20065;-82
2022/01/03 06:22:38;;;;;;;1.43;0.70;;;;;;;7.30;100.00;99808.56;4945468;28;20046;-82
2022/01/03 06:25:04;;;;;;;0.57;0.57;;;;;;;7.28;100.00;99829.59;4970508;28;20050;-82
2022/01/03 06:27:31;;;;;;;0.83;0.60;;;;;;;7.21;100.00;99828.00;4932802;28;20132;-82
2022/01/03 06:29:59;;;;;;;0.50;0.47;;;;;;;7.13;100.00;99823.78;4961905;28;20054;-82
2022/01/03 06:32:25;;;;;;;0.47;0.40;;;;;;;7.08;100.00;99836.16;4960558;28;20455;-83
2022/01/03 06:34:53;;;;;;;0.50;0.50;;;;;;;7.07;100.00;99840.56;4961860;28;20043;-83
2022/01/03 06:37:20;;;;;;;0.40;0.40;;;;;;;7.13;100.00;99835.16;4961209;28;20097;-82
2022/01/03 06:39:46;;;;;;;0.93;0.60;;;;;;;7.08;100.00;99846.69;4962472;28;20108;-82
2022/01/03 06:42:13;;;;;;;0.43;0.43;;;;;;;7.01;100.00;99851.19;4943207;28;20065;-82
2022/01/03 06:44:40;;;;;;;0.40;0.40;;;;;;;7.04;100.00;99864.25;4963208;28;20404;-83
2022/01/03 06:47:07;;;;;;;0.53;0.47;;;;;;;7.05;100.00;99871.22;4960372;28;20419;-83
2022/01/03 06:49:33;;;;;;;0.60;0.40;;;;;;;7.01;100.00;99866.94;4977284;28;20038;-82
2022/01/03 06:52:00;;;;;;;5.10;0.50;;;;;;;7.03;100.00;99867.75;4955620;28;20043;-82
2022/01/03 06:54:27;;;;;;;3.70;0.50;;;;;;;6.99;100.00;99874.84;4952396;28;20039;-82
2022/01/03 06:56:54;;;;;;;0.57;0.50;;;;;;;6.93;100.00;99874.94;4925105;28;20125;-82
2022/01/03 06:59:21;;;;;;;1.33;0.57;;;;;;;6.94;100.00;99874.06;4925694;28;20070;-82
2022/01/03 07:01:47;;;;;;;0.40;0.40;;;;;;;6.90;100.00;99874.16;4924622;28;20043;-82
2022/01/03 07:04:14;;;;;;;0.73;0.60;;;;;;;6.88;100.00;99887.28;4947342;28;20034;-83
2022/01/03 07:06:41;;;;;;;1.03;0.50;;;;;;;6.86;100.00;99888.22;4959603;28;20042;-82
2022/01/03 07:09:07;;;;;;;1.37;0.70;;;;;;;6.85;100.00;99891.72;4957211;28;20047;-81
2022/01/03 07:11:35;;;;;;;1.87;0.80;;;;;;;6.87;100.00;99897.81;4974443;28;20446;-82
2022/01/03 07:19:42;;;;;;;5.30;2.73;;;;;;;6.86;100.00;99917.97;4952169;28;20046;-82
2022/01/03 07:22:09;;;;;;;7.23;3.33;;;;;;;6.78;100.00;99918.09;4945751;28;20070;-82
2022/01/03 07:24:37;;;;;;;6.13;3.27;;;;;;;6.86;100.00;99914.47;4933251;28;20126;-83
2022/01/03 07:27:04;;;;;;;3.97;1.90;;;;;;;6.81;100.00;99914.56;4937115;29;20047;-83
2022/01/03 07:29:31;;;;;;;5.17;3.60;;;;;;;6.80;100.00;99917.19;4957246;28;20053;-82
2022/01/03 07:31:58;;;;;;;5.27;2.40;;;;;;;6.79;100.00;99918.94;4942191;28;20042;-83
2022/01/03 07:34:25;;;;;;;7.90;3.30;;;;;;;6.83;100.00;99919.78;4967713;28;20066;-82
2022/01/03 07:36:51;;;;;;;2.57;2.37;;;;;;;6.79;100.00;99918.94;4954811;28;20050;-82
2022/01/03 07:39:18;;;;;;;5.10;2.57;;;;;;;6.71;100.00;99919.06;4982649;28;20047;-82
2022/01/03 07:41:45;;;;;;;1.80;1.50;;;;;;;6.86;100.00;99925.84;4963932;28;20038;-81
2022/01/03 07:44:12;;;;;;;3.33;2.23;;;;;;;6.86;100.00;99919.72;4955533;28;20038;-83
2022/01/03 07:46:39;;;;;;;3.20;1.53;;;;;;;6.85;100.00;99923.25;4962384;28;20042;-82
2022/01/03 07:49:05;;;;;;;3.43;2.13;;;;;;;6.92;100.00;99919.63;4966473;28;20278;-82
2022/01/03 07:51:32;;;;;;;3.53;2.43;;;;;;;6.93;100.00;99924.84;4923539;28;20055;-82
2022/01/03 07:53:59;;;;;;;5.07;1.70;;;;;;;6.93;100.00;99923.97;4940520;28;20082;-81
2022/01/03 07:56:26;;;;;;;3.40;1.60;;;;;;;6.91;100.00;99921.38;4938315;28;20073;-82
2022/01/03 07:58:52;;;;;;;4.00;2.50;;;;;;;6.94;100.00;99930.97;4959779;28;20050;-83
2022/01/03 08:01:19;;;;;;;4.83;2.30;;;;;;;6.94;100.00;99923.06;4967410;28;20049;-82
2022/01/03 08:03:46;;;;;;;4.27;2.30;;;;;;;7.00;100.00;99929.09;4941408;28;20045;-83
2022/01/03 08:06:29;;;;;;;5.07;2.73;;;;;;;6.97;100.00;99929.13;4945646;28;20042;-81
2022/01/03 08:08:55;;;;;;;10.90;4.60;;;;;;;6.99;100.00;99929.13;4959758;28;20046;-81
2022/01/03 08:11:22;;;;;;;6.83;3.37;;;;;;;7.01;100.00;99938.69;4955048;28;20046;-85
2022/01/03 08:13:49;;;;;;;6.03;3.87;;;;;;;7.01;100.00;99928.19;4955980;28;20047;-82
2022/01/03 08:16:15;;;;;;;7.33;5.17;;;;;;;6.99;100.00;99939.63;4938922;28;20050;-81
2022/01/03 08:18:42;;;;;;;9.67;4.40;;;;;;;7.08;100.00;99936.84;4955878;28;20217;-82
2022/01/03 08:21:09;;;;;;;7.97;5.97;;;;;;;7.10;100.00;99942.06;4947999;28;20411;-83
2022/01/03 08:23:36;;;;;;;8.37;3.67;;;;;;;7.15;100.00;99933.22;4977397;28;20042;-82
2022/01/03 08:26:03;;;;;;;9.37;5.10;;;;;;;7.14;100.00;99934.09;4989640;28;20529;-83
2022/01/03 08:28:29;;;;;;;9.10;5.53;;;;;;;7.15;100.00;99929.72;4984047;28;20046;-82
2022/01/03 08:30:56;;;;;;;10.07;6.70;;;;;;;7.16;100.00;99934.09;4941161;28;20419;-82
2022/01/03 08:33:23;;;;;;;10.67;5.30;;;;;;;7.23;100.00;99940.94;4958298;28;20043;-81
2022/01/03 08:35:49;;;;;;;10.63;8.03;;;;;;;7.22;100.00;99941.81;4942656;28;20042;-83
2022/01/03 08:38:16;;;;;;;15.23;6.87;;;;;;;7.27;100.00;99945.25;4938877;28;20047;-81
2022/01/03 08:40:43;;;;;;;12.00;4.87;;;;;;;7.30;100.00;99947.81;4957835;28;20046;-82
2022/01/03 08:43:09;;;;;;;9.83;5.60;;;;;;;7.33;100.00;99942.53;4957016;28;20053;-82
2022/01/03 08:45:36;;;;;;;12.60;5.50;;;;;;;7.29;100.00;99941.69;4957979;28;20046;-82
2022/01/03 08:48:06;;;;;;;8.83;4.87;;;;;;;7.31;100.00;99936.41;4956406;28;20081;-81
2022/01/03 08:50:32;;;;;;;8.93;4.37;;;;;;;7.39;100.00;99944.13;4946359;28;20539;-81
2022/01/03 08:52:59;;;;;;;8.67;4.30;;;;;;;7.36;100.00;99941.59;4939438;28;20101;-82
2022/01/03 08:55:26;;;;;;;9.23;5.67;;;;;;;7.42;100.00;99944.09;4940077;28;20062;-83
2022/01/03 08:57:52;;;;;;;12.07;4.80;;;;;;;7.42;100.00;99950.22;4956010;28;20050;-82
2022/01/03 09:00:19;;;;;;;6.37;3.27;;;;;;;7.41;100.00;99950.25;4958032;28;20050;-82
2022/01/03 09:02:46;;;;;;;18.77;6.33;;;;;;;7.47;100.00;99944.88;4956335;28;20578;-81
2022/01/03 09:05:13;;;;;;;9.17;4.17;;;;;;;7.48;100.00;99952.75;4957471;28;20046;-81
2022/01/03 09:07:40;;;;;;;12.37;3.83;;;;;;;7.51;100.00;99949.19;4979074;28;20042;-82
2022/01/03 09:10:07;;;;;;;7.30;4.20;;;;;;;7.54;100.00;99944.72;4950940;28;20046;-82
2022/01/03 09:12:33;;;;;;;9.67;5.43;;;;;;;7.51;100.00;99942.16;4956276;28;20104;-82
2022/01/03 09:15:01;;;;;;;8.40;3.87;;;;;;;7.59;100.00;99942.00;4978534;28;20042;-84
2022/01/03 09:17:28;;;;;;;8.67;4.20;;;;;;;7.65;100.00;99934.00;4956658;28;20053;-84
2022/01/03 09:19:55;;;;;;;12.37;5.23;;;;;;;7.66;100.00;99942.75;4957254;28;20097;-83
2022/01/03 09:22:27;;;;;;;8.87;4.30;;;;;;;7.66;100.00;99929.63;4953799;28;20050;-82
2022/01/03 09:30:13;;;;;;;15.40;7.30;;;;;;;7.75;100.00;99940.81;4956415;28;20047;-83
2022/01/03 09:32:40;;;;;;;8.87;4.40;;;;;;;7.84;100.00;99948.50;4921037;28;20062;-82
2022/01/03 09:35:08;;;;;;;13.87;4.10;;;;;;;7.84;100.00;99955.53;4939334;28;20050;-84
2022/01/03 09:37:35;;;;;;;8.63;4.03;;;;;;;7.90;100.00;99965.91;4921296;28;20053;-82
2022/01/03 09:40:04;;;;;;;10.27;3.40;;;;;;;7.94;100.00;99962.31;4926566;28;20050;-82
2022/01/03 09:42:31;;;;;;;9.77;5.30;;;;;;;7.94;100.00;99969.34;4935503;28;20672;-83
2022/01/03 09:45:03;;;;;;;9.73;3.53;;;;;;;7.97;100.00;99961.38;4937521;28;20090;-83
2022/01/03 09:47:31;;;;;;;11.47;4.90;;;;;;;7.97;100.00;99962.25;4967262;28;20125;-81
2022/01/03 09:49:59;;;;;;;7.07;4.00;;;;;;;8.03;100.00;99963.91;4964283;28;20043;-82
2022/01/03 09:52:26;;;;;;;14.23;3.70;;;;;;;8.07;100.00;99969.06;4939939;28;20061;-82
2022/01/03 09:54:55;;;;;;;9.63;5.20;;;;;;;8.11;100.00;99964.59;4956975;28;20458;-82
2022/01/03 09:57:22;;;;;;;12.57;4.13;;;;;;;8.11;100.00;99964.59;4940613;28;20043;-83
2022/01/03 09:59:48;;;;;;;10.50;4.67;;;;;;;8.14;100.00;99964.53;4951629;28;20051;-82
2022/01/03 10:02:16;;;;;;;8.23;4.20;;;;;;;8.09;100.00;99963.78;4954035;28;20047;-80
2022/01/03 10:04:44;;;;;;;13.73;4.77;;;;;;;8.10;100.00;99965.50;4957136;28;20108;-80
2022/01/03 10:07:12;;;;;;;12.50;4.73;;;;;;;8.13;100.00;99966.28;4956817;28;20046;-84
2022/01/03 10:09:39;;;;;;;10.00;4.60;;;;;;;8.12;100.00;99955.81;4941077;28;20043;-81
2022/01/03 10:12:09;;;;;;;11.87;3.67;;;;;;;8.13;100.00;99960.16;4955002;28;20053;-83
2022/01/03 10:14:36;;;;;;;10.10;4.73;;;;;;;8.14;100.00;99959.25;4956437;28;20035;-83
2022/01/03 10:17:03;;;;;;;9.53;4.73;;;;;;;8.10;100.00;99950.59;4971789;28;20042;-82
2022/01/03 10:19:57;;;;;;;10.20;4.73;;;;;;;8.16;100.00;99960.97;4957556;28;20129;-83
2022/01/03 10:22:26;;;;;;;12.00;4.30;;;;;;;8.12;100.00;99947.91;4938932;28;20096;-82
2022/01/03 10:24:54;;;;;;;14.27;5.97;;;;;;;8.10;100.00;99941.81;4949098;28;20054;-81
2022/01/03 10:27:43;;;;;;;5.97;3.53;;;;;;;8.08;100.00;99951.53;4939602;28;20041;-82
2022/01/03 10:30:10;;;;;;;12.30;5.53;;;;;;;8.06;100.00;99959.41;4953287;28;20106;-81
2022/01/03 10:32:37;;;;;;;17.17;6.90;;;;;;;8.05;100.00;99964.72;4953618;28;20401;-81
2022/01/03 10:35:17;;;;;;;9.33;4.57;;;;;;;8.05;100.00;99959.47;4960148;28;20046;-81
2022/01/03 10:37:44;;;;;;;8.23;4.63;;;;;;;8.05;100.00;99960.31;4947165;28;20400;-82
2022/01/03 10:40:27;;;;;;;12.43;4.45;;;;;;;8.10;100.00;99957.63;4943466;28;20516;-83
2022/01/03 10:42:56;;;;;;;10.35;4.28;;;;;;;8.12;100.00;99948.78;4969492;28;20046;-80
2022/01/03 10:45:27;;;;;;;10.43;4.23;;;;;;;8.14;100.00;99959.25;4950612;28;20492;-81
2022/01/03 10:47:54;;;;;;;9.45;5.38;;;;;;;8.16;100.00;99965.38;4964522;28;20050;-81
2022/01/03 10:50:22;;;;;;;17.85;13.38;;;;;;;8.16;100.00;99962.75;4955232;28;20077;-84
2022/01/03 10:52:49;;;;;;;10.60;4.63;;;;;;;8.16;100.00;99971.50;4934951;28;20047;-83
2022/01/03 10:55:26;;;;;;;27.83;16.95;;;;;;;8.18;100.00;99968.84;4929985;28;20038;-82
2022/01/03 10:57:58;;;;;;;16.95;6.55;;;;;;;8.28;100.00;99966.88;4955133;28;20504;-84
2022/01/03 11:00:29;;;;;;;9.93;4.38;;;;;;;8.27;100.00;99955.47;4954900;28;20066;-85
2022/01/03 11:05:52;;;;;;;11.15;5.00;;;;;;;8.34;100.00;99959.69;4973616;28;20050;-82
2022/01/03 11:11:08;;;;;;;9.57;4.82;;;;;;;8.40;100.00;99956.94;4954089;28;20096;-82
2022/01/03 11:13:43;;;;;;;17.63;4.53;;;;;;;8.42;100.00;99955.16;4958544;28;20050;-82
2022/01/03 11:16:11;;;;;;;13.25;4.53;;;;;;;8.42;100.00;99954.31;4956398;28;20046;-85
2022/01/03 11:18:58;;;;;;;12.18;6.05;;;;;;;8.40;100.00;99954.31;4942388;28;20046;-83
2022/01/03 11:21:26;;;;;;;12.52;4.50;;;;;;;8.41;100.00;99947.31;4962105;28;20042;-82
2022/01/03 11:24:00;;;;;;;14.63;5.28;;;;;;;8.42;100.00;99938.50;4942364;28;20050;-82
2022/01/03 11:26:30;;;;;;;19.92;7.43;;;;;;;8.48;100.00;99940.09;4972632;28;20054;-83
2022/01/03 11:28:57;;;;;;;11.60;4.83;;;;;;;8.56;100.00;99943.44;4971631;28;20046;-82
2022/01/03 11:31:24;;;;;;;15.60;5.40;;;;;;;8.65;100.00;99943.22;4936384;28;20678;-83
2022/01/03 11:33:52;;;;;;;55.70;17.10;;;;;;;8.72;100.00;99937.75;4922007;28;20058;-82
2022/01/03 11:36:40;;;;;;;16.40;8.43;;;;;;;8.74;100.00;99929.81;4942539;28;20093;-82
2022/01/03 11:39:12;;;;;;;12.98;5.88;;;;;;;8.73;100.00;99933.34;4950473;28;20405;-82
2022/01/03 11:41:40;;;;;;;13.13;5.50;;;;;;;8.70;100.00;99928.19;4921164;28;20082;-83
2022/01/03 11:44:11;;;;;;;15.05;7.88;;;;;;;8.72;100.00;99919.31;4937645;28;20049;-83
2022/01/03 11:46:42;;;;;;;21.45;6.30;;;;;;;8.81;100.00;99920.00;4922443;28;20098;-83
2022/01/03 11:49:09;;;;;;;16.98;6.35;;;;;;;8.85;100.00;99922.53;4928440;28;20062;-83
2022/01/03 11:51:37;;;;;;;14.20;4.13;;;;;;;8.85;100.00;99919.91;4936892;28;20046;-82
2022/01/03 11:54:06;;;;;;;22.05;6.68;;;;;;;8.82;100.00;99917.31;4938768;28;20051;-82
2022/01/03 11:56:39;;;;;;;16.25;5.25;;;;;;;8.76;100.00;99912.22;4920756;28;20117;-83
2022/01/03 12:04:58;;;;;;;13.13;4.10;;;;;;;8.78;100.00;99896.38;4962194;28;20097;-84